Hakui, Japan
Current Conditions -  °F | °C
As of 9:00 PM on Friday 28 Nov 2014 (Local Time) from RJNT Reporting Station
Broken Clouds Broken Clouds  
Wind Chill: 66°   Ceiling: 11000
Heat Index: 66°   Visibility: 6mi
Dew Point: 46°   Wind: 15mph
Humidity: 49%   Direction: 170°S
Pressure: 30"   Gusts: NA
Location:  36.9°N, 136.77°E
Report Text: RJNT 281200Z 17013KT 140V220 9999 FEW030 SCT080 BKN110 19/08 Q1016
Loading
Personal Weather Stations






























Interactive Weather Map New forecast layout! Learn more

10-Day Weather Forecast

Advertisements
Track Severe Weather on mobile